Aérodrome :
LOGIN :

S'inscrire | Disclaimer

   EN    FR    IT 

 










Légende :    VFR   VFR Marginal   IFR   IFR Intensif   IFR Très Intensif
Visi : 
Plafond : 
>= 8 km
>= 3000ft
5 à 8 km
1000 à 3000 ft
1500m à 5 km
500 à 1000 ft
800 à 1500m
200 à 500 ft
< 800m
< 200 ft
Symboles :   Orages  Brouillard  Fortes neiges  Fortes précipitations  Vent > 20 kt
SIGMETs :   Divers  Orages  Givrage  Turbulence  Onde Orograph.  Cendres Volcan.






- Altitude de l'aérodrome : 784 ft
- Code IATA : TZL


LQTZ - Tuzla

DERNIER METAR :
  • 151030Z VRB04KT 9999 FEW030 29/15 Q1008

METARs EXPIRÉS :
  • 151000Z VRB03KT 9999 FEW030 28/15 Q1009
  • 150930Z VRB02KT 9999 FEW030 27/16 Q1009
  • 150900Z VRB02KT CAVOK 26/17 Q1009
  • 150830Z VRB02KT CAVOK 25/17 Q1009
  • 150800Z VRB02KT CAVOK 23/17 Q1009

TAF COR TAF LQTZ
Valide du 15 à 06h jusqu'au 16 à 06h UTC


150500Z 1506/1606 VRB02KT 9999 SCT040 TX30/1514Z TN15/1606Z



MET'MAP, la Météo Aéronautique d'un coup d'oeil ! - Copyright ORBIFLY Décembre 2007 - Disclaimer

ORBIFLY MET'MAP TEAM :

Programmation & Développement : Alexandra Zaïnal
Sur une idée originale de : Baudouin d'Aumeries
Soutien technique & logistique : Manuel Goepfert
Assistance : Marc-Olivier Méhu




SOURCES & CREDITS :

   NOAA